.
WxDataArchive / Data Records for 2010-02-01
2010-01-31 February 2010 2010-02-02

Data Records for Monday, 01 February 2010

Time	Temp	Chill	HIndex	Humid	Dewpt	 Wind 	HiWind	WindDir	Rain 	Barom 
-----	----	-----	------	-----	-----	------	------	-------	-----	----- 
00:00	17.2	17.2	17.2	77	11.3	0	0	---	0.00	30.339 
00:05	16.9	16.9	16.9	77	11.0	0	0	---	0.00	30.339 
00:10	16.5	16.5	16.5	77	10.6	0	0	---	0.00	30.339 
00:15	16.2	16.2	16.2	77	10.3	0	0	---	0.00	30.338 
00:20	15.9	15.9	15.9	78	10.3	0	0	---	0.00	30.338 
00:25	15.6	15.6	15.6	78	10.0	0	0	---	0.00	30.338 
00:30	15.2	15.2	15.2	78	9.6	0	0	---	0.00	30.342 
00:35	14.9	14.9	14.9	79	9.6	0	0	---	0.00	30.342 
00:40	14.6	14.6	14.6	79	9.3	0	0	---	0.00	30.342 
00:45	14.3	14.3	14.3	79	9.0	0	0	---	0.00	30.349 
00:50	14.0	14.0	14.0	80	9.0	0	0	---	0.00	30.349 
00:55	13.8	13.8	13.8	80	8.8	0	0	---	0.00	30.349 
01:00	13.8	13.8	13.8	81	9.1	0	0	---	0.00	30.352 
01:05	13.6	13.6	13.6	81	8.9	0	0	---	0.00	30.352 
01:10	13.8	13.8	13.8	82	9.3	0	0	---	0.00	30.352 
01:15	13.8	13.8	13.8	82	9.3	0	0	---	0.00	30.354 
01:20	13.6	13.6	13.6	83	9.4	0	0	---	0.00	30.354 
01:25	13.5	13.5	13.5	83	9.3	0	0	---	0.00	30.354 
01:30	13.5	13.5	13.5	83	9.3	0	0	---	0.00	30.360 
01:35	13.3	13.3	13.3	83	9.1	0	0	---	0.00	30.360 
01:40	13.1	13.1	13.1	83	8.9	0	0	---	0.00	30.360 
01:45	12.9	12.9	12.9	83	8.7	0	0	---	0.00	30.363 
01:50	12.8	12.8	12.8	84	8.9	0	0	---	0.00	30.363 
01:55	12.6	12.6	12.6	84	8.7	0	0	---	0.00	30.363 
02:00	12.6	12.6	12.6	84	8.7	0	0	---	0.00	30.365 
02:05	12.4	12.4	12.4	84	8.5	0	0	---	0.00	30.365 
02:10	12.3	12.3	12.3	84	8.4	0	0	---	0.00	30.365 
02:15	12.3	12.3	12.3	84	8.4	0	0	---	0.00	30.366 
02:20	12.1	12.1	12.1	84	8.2	0	0	---	0.00	30.366 
02:25	11.9	11.9	11.9	84	8.0	0	0	---	0.00	30.366 
02:30	11.9	11.9	11.9	84	8.0	0	0	---	0.00	30.376 
02:35	11.7	11.7	11.7	84	7.8	0	0	---	0.00	30.376 
02:40	11.6	11.6	11.6	85	8.0	0	0	---	0.00	30.376 
02:45	11.6	11.6	11.6	85	8.0	0	0	---	0.00	30.380 
02:50	11.4	11.4	11.4	85	7.8	0	0	---	0.00	30.380 
02:55	11.1	11.1	11.1	85	7.5	0	0	---	0.00	30.380 
03:00	10.9	10.9	10.9	85	7.3	0	0	---	0.00	30.380 
03:05	10.7	10.7	10.7	85	7.1	0	0	---	0.00	30.380 
03:10	10.5	10.5	10.5	85	6.9	0	0	---	0.00	30.380 
03:15	10.4	10.4	10.4	85	6.8	0	0	---	0.00	30.381 
03:20	10.4	10.4	10.4	85	6.8	0	0	---	0.00	30.381 
03:25	10.2	10.2	10.2	85	6.6	0	0	---	0.00	30.381 
03:30	10.2	10.2	10.2	85	6.6	0	0	---	0.00	30.383 
03:35	10.2	10.2	10.2	85	6.6	0	0	---	0.00	30.383 
03:40	10.2	10.2	10.2	85	6.6	0	0	---	0.00	30.383 
03:45	10.2	10.2	10.2	85	6.6	0	0	---	0.00	30.383 
03:50	10.4	10.4	10.4	86	7.1	0	0	---	0.00	30.383 
03:55	10.5	10.5	10.5	86	7.2	0	0	---	0.00	30.383 
04:00	10.5	10.5	10.5	86	7.2	0	0	---	0.00	30.380 
04:05	10.7	10.7	10.7	86	7.4	0	0	---	0.00	30.380 
04:10	10.7	10.7	10.7	86	7.4	0	0	---	0.00	30.380 
04:15	10.9	10.9	10.9	86	7.6	0	0	---	0.00	30.377 
04:20	11.1	11.1	11.1	86	7.7	0	0	---	0.00	30.377 
04:25	11.2	11.2	11.2	86	7.8	0	0	---	0.00	30.377 
04:30	11.2	11.2	11.2	86	7.8	0	0	---	0.00	30.375 
04:35	11.2	11.2	11.2	86	7.8	0	0	---	0.00	30.375 
04:40	11.4	11.4	11.4	86	8.0	0	0	---	0.00	30.375 
04:45	11.4	11.4	11.4	86	8.0	0	0	---	0.00	30.379 
04:50	11.4	11.4	11.4	86	8.0	0	0	---	0.00	30.379 
04:55	11.4	11.4	11.4	86	8.0	0	0	---	0.00	30.379 
05:00	11.4	11.4	11.4	86	8.0	0	0	---	0.00	30.373 
05:05	11.4	11.4	11.4	86	8.0	0	0	---	0.00	30.373 
05:10	11.4	11.4	11.4	86	8.0	0	0	---	0.00	30.373 
05:15	11.4	11.4	11.4	86	8.0	0	0	---	0.00	30.371 
05:20	11.4	11.4	11.4	86	8.0	0	0	---	0.00	30.371 
05:25	11.2	11.2	11.2	86	7.8	0	0	---	0.00	30.371 
05:30	11.2	11.2	11.2	86	7.8	0	0	---	0.00	30.370 
05:35	11.2	11.2	11.2	86	7.8	0	0	---	0.00	30.370 
05:40	11.2	11.2	11.2	86	7.8	0	0	---	0.00	30.370 
05:45	11.1	11.1	11.1	86	7.7	0	0	---	0.00	30.367 
05:50	11.1	11.1	11.1	86	7.7	0	0	---	0.00	30.367 
05:55	10.9	10.9	10.9	86	7.6	0	0	---	0.00	30.367 
06:00	10.7	10.7	10.7	86	7.4	0	0	---	0.00	30.364 
06:05	10.7	10.7	10.7	86	7.4	0	0	---	0.00	30.364 
06:10	10.7	10.7	10.7	86	7.4	0	0	---	0.00	30.364 
06:15	10.7	10.7	10.7	86	7.4	0	0	---	0.00	30.367 
06:20	10.9	10.9	10.9	86	7.6	0	0	---	0.00	30.367 
06:25	11.1	11.1	11.1	86	7.7	0	0	---	0.00	30.367 
06:30	11.2	11.2	11.2	86	7.8	0	0	---	0.00	30.366 
06:35	11.4	11.4	11.4	87	8.3	0	0	---	0.00	30.366 
06:40	11.6	11.6	11.6	86	8.2	0	0	---	0.00	30.366 
06:45	11.6	11.6	11.6	87	8.5	0	0	---	0.00	30.357 
06:50	11.7	11.7	11.7	87	8.6	0	0	---	0.00	30.357 
06:55	12.1	12.1	12.1	87	9.0	0	0	---	0.00	30.357 
07:00	12.3	12.3	12.3	87	9.2	0	0	---	0.00	30.351 
07:05	12.6	12.6	12.6	87	9.5	0	0	---	0.00	30.351 
07:10	12.8	12.8	12.8	87	9.7	0	0	---	0.00	30.351 
07:15	12.9	12.9	12.9	88	10.0	0	0	---	0.00	30.360 
07:20	13.1	13.1	13.1	88	10.2	0	0	---	0.00	30.360 
07:25	13.3	13.3	13.3	88	10.4	0	0	---	0.00	30.360 
07:30	13.5	13.5	13.5	88	10.6	0	0	---	0.00	30.373 
07:35	13.5	13.5	13.5	88	10.6	0	0	---	0.00	30.373 
07:40	13.6	13.6	13.6	88	10.7	0	0	---	0.00	30.373 
07:45	13.6	13.6	13.6	88	10.7	0	0	---	0.00	30.378 
07:50	13.5	13.5	13.5	87	10.4	0	0	---	0.00	30.378 
07:55	13.5	13.5	13.5	87	10.4	0	0	---	0.00	30.378 
08:00	13.6	13.6	13.6	87	10.5	0	0	---	0.00	30.382 
08:05	13.6	13.6	13.6	87	10.5	0	0	---	0.00	30.382 
08:10	13.6	13.6	13.6	87	10.5	0	0	---	0.00	30.382 
08:15	13.8	13.8	13.8	88	10.9	0	0	---	0.00	30.386 
08:20	14.0	14.0	14.0	88	11.1	0	0	---	0.00	30.386 
08:25	14.1	14.1	14.1	88	11.2	0	0	---	0.00	30.386 
08:30	14.3	14.3	14.3	88	11.4	0	0	---	0.00	30.392 
08:35	14.6	14.6	14.6	88	11.7	0	0	---	0.00	30.392 
08:40	14.9	14.9	14.9	88	12.0	0	0	---	0.00	30.392 
08:45	15.4	15.4	15.4	88	12.5	0	0	---	0.00	30.395 
08:50	15.7	15.7	15.7	88	12.8	0	0	---	0.00	30.395 
08:55	16.1	16.1	16.1	88	13.2	0	0	---	0.00	30.395 
09:00	16.4	16.4	16.4	88	13.5	0	1	270	0.00	30.385 
09:05	16.9	16.9	16.9	88	14.0	0	0	---	0.00	30.385 
09:10	17.2	17.2	17.2	88	14.3	0	0	---	0.00	30.385 
09:15	17.7	17.7	17.7	88	14.8	0	0	---	0.00	30.389 
09:20	18.0	18.0	18.0	87	14.8	0	1	270	0.00	30.389 
09:25	18.3	18.3	18.3	86	14.8	0	0	---	0.00	30.389 
09:30	18.6	18.6	18.6	84	14.6	0	2	270	0.00	30.379 
09:35	18.9	18.9	18.9	82	14.3	0	2	270	0.00	30.379 
09:40	19.4	19.4	19.4	81	14.5	0	1	270	0.00	30.379 
09:45	19.7	19.7	19.7	80	14.6	0	2	158	0.00	30.388 
09:50	20.0	20.0	20.0	78	14.3	0	2	90	0.00	30.388 
09:55	20.3	20.3	20.3	77	14.3	0	3	90	0.00	30.388 
10:00	20.6	20.6	20.6	76	14.3	0	2	90	0.00	30.392 
10:05	21.1	21.1	21.1	75	14.4	0	2	90	0.00	30.392 
10:10	21.6	21.6	21.6	74	14.6	0	2	90	0.00	30.392 
10:15	22.2	22.2	22.2	72	14.6	0	2	90	0.00	30.394 
10:20	22.7	22.7	22.7	70	14.4	1	3	90	0.00	30.394 
10:25	22.9	22.9	22.9	69	14.3	1	3	90	0.00	30.394 
10:30	23.0	23.0	23.0	68	14.0	1	3	90	0.00	30.394 
10:35	23.0	23.0	23.0	69	14.4	1	3	90	0.00	30.394 
10:40	23.3	23.3	23.3	67	14.0	1	2	90	0.00	30.394 
10:45	23.5	23.5	23.5	66	13.8	1	4	90	0.00	30.388 
10:50	23.5	23.5	23.5	66	13.8	2	4	90	0.00	30.388 
10:55	23.8	23.8	23.8	65	13.8	1	3	90	0.00	30.388 
11:00	24.1	24.1	24.1	65	14.1	1	4	68	0.00	30.391 
11:05	24.2	24.2	24.2	65	14.2	1	3	68	0.00	30.391 
11:10	24.5	24.5	24.5	65	14.4	0	2	68	0.00	30.391 
11:15	24.8	24.8	24.8	64	14.4	0	3	68	0.00	30.404 
11:20	25.1	25.1	25.1	64	14.7	1	3	90	0.00	30.404 
11:25	25.3	25.3	25.3	64	14.9	1	2	112	0.00	30.404 
11:30	25.4	25.4	25.4	63	14.6	1	2	112	0.00	30.400 
11:35	25.6	25.6	25.6	63	14.8	1	3	112	0.00	30.400 
11:40	25.8	25.8	25.8	63	15.0	1	3	112	0.00	30.400 
11:45	26.0	26.0	26.0	62	14.8	1	4	112	0.00	30.395 
11:50	26.3	26.3	26.3	62	15.1	1	2	135	0.00	30.395 
11:55	26.3	26.3	26.3	62	15.1	1	3	112	0.00	30.395 
12:00	26.4	26.4	26.4	62	15.2	1	3	112	0.00	30.390 
12:05	26.6	26.6	26.6	63	15.7	1	3	112	0.00	30.390 
12:10	26.7	26.7	26.7	62	15.5	1	2	135	0.00	30.390 
12:15	26.7	26.7	26.7	62	15.5	1	3	135	0.00	30.380 
12:20	27.2	27.2	27.2	62	15.9	1	3	112	0.00	30.380 
12:25	27.5	27.5	27.5	61	15.8	1	4	135	0.00	30.380 
12:30	27.5	27.5	27.5	61	15.8	1	4	112	0.00	30.369 
12:35	27.8	27.8	27.8	62	16.5	0	2	112	0.00	30.369 
12:40	27.9	27.9	27.9	60	15.8	1	2	248	0.00	30.369 
12:45	28.2	28.2	28.2	60	16.1	0	2	68	0.00	30.356 
12:50	28.2	28.2	28.2	60	16.1	1	3	90	0.00	30.356 
12:55	28.2	28.2	28.2	59	15.7	1	2	90	0.00	30.356 
13:00	28.1	28.1	28.1	59	15.6	0	2	90	0.00	30.354 
13:05	28.2	28.2	28.2	60	16.1	0	2	90	0.00	30.354 
13:10	28.4	28.4	28.4	59	15.9	1	3	135	0.00	30.354 
13:15	28.4	28.4	28.4	60	16.3	0	2	135	0.00	30.346 
13:20	28.7	28.7	28.7	60	16.6	0	1	135	0.00	30.346 
13:25	28.7	28.7	28.7	59	16.2	1	3	135	0.00	30.346 
13:30	28.8	28.8	28.8	59	16.3	1	4	248	0.01	30.333 
13:35	29.1	29.1	29.1	58	16.2	0	2	248	0.00	30.333 
13:40	29.3	29.3	29.3	58	16.4	0	3	248	0.00	30.333 
13:45	29.1	29.1	29.1	58	16.2	1	4	112	0.00	30.328 
13:50	28.7	28.7	28.7	59	16.2	1	4	90	0.00	30.328 
13:55	28.7	28.7	28.7	59	16.2	1	4	112	0.00	30.328 
14:00	28.8	28.8	28.8	59	16.3	1	3	112	0.00	30.317 
14:05	28.8	28.8	28.8	59	16.3	1	4	112	0.00	30.317 
14:10	29.0	29.0	29.0	59	16.5	1	3	112	0.00	30.317 
14:15	29.0	29.0	29.0	58	16.1	2	4	112	0.00	30.315 
14:20	29.3	29.3	29.3	58	16.4	1	3	112	0.00	30.315 
14:25	29.5	29.5	29.5	58	16.6	0	3	112	0.00	30.315 
14:30	29.7	29.7	29.7	57	16.4	0	2	112	0.00	30.312 
14:35	29.8	29.8	29.8	59	17.2	1	3	248	0.00	30.312 
14:40	30.0	30.0	30.0	57	16.6	0	2	270	0.00	30.312 
14:45	29.8	29.8	29.8	57	16.4	1	3	270	0.00	30.306 
14:50	29.8	29.8	29.8	57	16.4	1	3	112	0.00	30.306 
14:55	29.8	29.8	29.8	58	16.8	1	3	112	0.00	30.306 
15:00	29.5	29.5	29.5	58	16.6	1	3	112	0.00	30.302 
15:05	29.5	29.5	29.5	58	16.6	1	2	112	0.00	30.302 
15:10	29.4	29.4	29.4	59	16.9	1	2	112	0.00	30.302 
15:15	29.4	29.4	29.4	58	16.5	1	3	112	0.00	30.299 
15:20	29.7	29.7	29.7	59	17.1	1	4	112	0.00	30.299 
15:25	29.7	29.7	29.7	59	17.1	1	3	90	0.00	30.299 
15:30	29.5	29.5	29.5	58	16.6	2	4	90	0.00	30.296 
15:35	29.5	29.5	29.5	59	17.0	1	2	90	0.00	30.296 
15:40	29.5	29.5	29.5	59	17.0	0	2	90	0.00	30.296 
15:45	29.5	29.5	29.5	59	17.0	1	2	90	0.00	30.298 
15:50	29.7	29.7	29.7	58	16.8	1	2	90	0.00	30.298 
15:55	29.7	29.7	29.7	58	16.8	0	2	90	0.00	30.298 
16:00	29.8	29.8	29.8	58	16.8	1	3	90	0.00	30.298 
16:05	29.8	29.8	29.8	59	17.2	0	2	90	0.00	30.298 
16:10	29.8	29.8	29.8	58	16.8	0	1	90	0.00	30.298 
16:15	30.0	30.0	30.0	58	17.0	0	1	90	0.00	30.304 
16:20	30.0	30.0	30.0	58	17.0	0	2	90	0.00	30.304 
16:25	30.0	30.0	30.0	58	17.0	0	1	90	0.00	30.304 
16:30	30.0	30.0	30.0	58	17.0	0	1	90	0.00	30.303 
16:35	29.8	29.8	29.8	59	17.2	1	3	90	0.00	30.303 
16:40	29.8	29.8	29.8	58	16.8	1	3	90	0.00	30.303 
16:45	29.7	29.7	29.7	58	16.8	1	4	90	0.00	30.300 
16:50	29.7	29.7	29.7	60	17.5	0	2	90	0.00	30.300 
16:55	29.7	29.7	29.7	59	17.1	0	2	90	0.00	30.300 
17:00	29.7	29.7	29.7	59	17.1	0	2	112	0.00	30.299 
17:05	29.8	29.8	29.8	59	17.2	0	2	112	0.00	30.299 
17:10	29.7	29.7	29.7	59	17.1	0	2	135	0.00	30.299 
17:15	29.5	29.5	29.5	59	17.0	1	2	135	0.00	30.291 
17:20	29.5	29.5	29.5	60	17.3	0	1	135	0.00	30.291 
17:25	29.5	29.5	29.5	61	17.7	0	2	135	0.00	30.291 
17:30	29.4	29.4	29.4	61	17.6	0	1	135	0.00	30.291 
17:35	29.4	29.4	29.4	62	18.0	1	2	135	0.00	30.291 
17:40	29.3	29.3	29.3	62	17.9	1	2	135	0.00	30.291 
17:45	29.1	29.1	29.1	63	18.1	0	1	135	0.00	30.284 
17:50	29.1	29.1	29.1	62	17.7	0	1	135	0.00	30.284 
17:55	29.1	29.1	29.1	62	17.7	0	1	135	0.00	30.284 
18:00	29.0	29.0	29.0	63	18.0	0	1	135	0.00	30.284 
18:05	29.0	29.0	29.0	64	18.4	0	1	135	0.00	30.284 
18:10	29.0	29.0	29.0	64	18.4	0	1	135	0.00	30.284 
18:15	29.0	29.0	29.0	64	18.4	1	2	135	0.00	30.281 
18:20	28.8	28.8	28.8	64	18.2	1	2	135	0.00	30.281 
18:25	28.7	28.7	28.7	64	18.1	1	3	135	0.00	30.281 
18:30	28.7	28.7	28.7	65	18.4	1	3	90	0.00	30.275 
18:35	28.5	28.5	28.5	65	18.3	1	3	90	0.00	30.275 
18:40	28.4	28.4	28.4	66	18.5	1	2	90	0.00	30.275 
18:45	28.1	28.1	28.1	66	18.2	1	3	90	0.00	30.272 
18:50	27.9	27.9	27.9	66	18.0	0	2	90	0.00	30.272 
18:55	27.8	27.8	27.8	67	18.3	0	2	90	0.00	30.272 
19:00	27.6	27.6	27.6	68	18.4	0	2	90	0.00	30.270 
19:05	27.5	27.5	27.5	68	18.3	0	0	---	0.00	30.270 
19:10	27.2	27.2	27.2	69	18.4	0	2	90	0.00	30.270 
19:15	27.0	27.0	27.0	70	18.5	0	1	90	0.00	30.267 
19:20	26.9	26.9	26.9	70	18.4	0	2	90	0.00	30.267 
19:25	26.6	26.6	26.6	70	18.2	0	1	90	0.00	30.267 
19:30	26.4	26.4	26.4	71	18.3	0	1	90	0.00	30.268 
19:35	26.1	26.1	26.1	71	18.0	0	0	---	0.00	30.268 
19:40	25.8	25.8	25.8	72	18.0	0	0	---	0.00	30.268 
19:45	25.7	25.7	25.7	73	18.3	0	1	90	0.00	30.269 
19:50	25.4	25.4	25.4	74	18.3	0	1	90	0.00	30.269 
19:55	25.4	25.4	25.4	74	18.3	0	2	90	0.00	30.269 
20:00	25.3	25.3	25.3	74	18.2	0	1	90	0.00	30.269 
20:05	25.1	25.1	25.1	74	18.0	0	2	90	0.00	30.269 
20:10	25.0	25.0	25.0	74	17.9	0	0	---	0.00	30.269 
20:15	24.8	24.8	24.8	74	17.7	0	0	---	0.00	30.271 
20:20	24.5	24.5	24.5	74	17.4	0	0	---	0.00	30.271 
20:25	24.2	24.2	24.2	75	17.4	0	0	---	0.00	30.271 
20:30	23.9	23.9	23.9	75	17.2	0	0	---	0.00	30.269 
20:35	23.6	23.6	23.6	75	16.9	0	0	---	0.00	30.269 
20:40	23.2	23.2	23.2	76	16.8	0	0	---	0.00	30.269 
20:45	23.0	23.0	23.0	77	16.9	0	0	---	0.00	30.268 
20:50	22.7	22.7	22.7	77	16.6	0	0	---	0.00	30.268 
20:55	22.4	22.4	22.4	77	16.3	0	0	---	0.00	30.268 
21:00	22.2	22.2	22.2	79	16.7	0	0	---	0.00	30.259 
21:05	22.1	22.1	22.1	79	16.6	0	0	---	0.00	30.259 
21:10	21.8	21.8	21.8	79	16.3	0	0	---	0.00	30.259 
21:15	21.8	21.8	21.8	80	16.6	0	0	---	0.00	30.251 
21:20	21.6	21.6	21.6	80	16.4	0	0	---	0.00	30.251 
21:25	21.6	21.6	21.6	80	16.4	0	0	---	0.00	30.251 
21:30	21.4	21.4	21.4	81	16.5	0	0	---	0.00	30.250 
21:35	21.4	21.4	21.4	81	16.5	0	0	---	0.00	30.250 
21:40	21.6	21.6	21.6	82	17.0	0	0	---	0.00	30.250 
21:45	21.8	21.8	21.8	82	17.2	0	0	---	0.00	30.254 
21:50	22.1	22.1	22.1	82	17.5	0	0	---	0.00	30.254 
21:55	22.2	22.2	22.2	83	17.8	0	0	---	0.00	30.254 
22:00	22.4	22.4	22.4	83	18.0	0	0	---	0.00	30.251 
22:05	22.5	22.5	22.5	83	18.1	0	1	90	0.00	30.251 
22:10	22.9	22.9	22.9	83	18.5	0	0	---	0.00	30.251 
22:15	23.2	23.2	23.2	82	18.5	0	0	---	0.00	30.246 
22:20	23.5	23.5	23.5	81	18.5	0	1	90	0.00	30.246 
22:25	23.8	23.8	23.8	80	18.5	0	1	90	0.00	30.246 
22:30	24.1	24.1	24.1	80	18.8	0	2	90	0.00	30.239 
22:35	24.2	24.2	24.2	79	18.6	0	2	90	0.00	30.239 
22:40	24.2	24.2	24.2	79	18.6	0	1	90	0.00	30.239 
22:45	24.2	24.2	24.2	79	18.6	0	2	90	0.00	30.230 
22:50	24.4	24.4	24.4	78	18.5	0	1	90	0.00	30.230 
22:55	24.4	24.4	24.4	78	18.5	0	1	90	0.00	30.230 
23:00	24.4	24.4	24.4	78	18.5	0	1	90	0.00	30.233 
23:05	24.4	24.4	24.4	78	18.5	0	1	90	0.00	30.233 
23:10	24.2	24.2	24.2	78	18.3	0	1	90	0.00	30.233 
23:15	24.2	24.2	24.2	78	18.3	0	1	90	0.00	30.227 
23:20	24.2	24.2	24.2	78	18.3	0	1	90	0.00	30.227 
23:25	24.2	24.2	24.2	78	18.3	0	1	90	0.00	30.227 
23:30	24.2	24.2	24.2	78	18.3	0	2	90	0.00	30.227 
23:35	24.2	24.2	24.2	78	18.3	0	2	90	0.00	30.227 
23:40	24.2	24.2	24.2	78	18.3	1	3	90	0.00	30.227 
23:45	24.2	24.2	24.2	78	18.3	0	2	90	0.00	30.222 
23:50	24.2	24.2	24.2	78	18.3	0	2	90	0.00	30.222 
23:55	24.2	24.2	24.2	78	18.3	0	2	90	0.00	30.222 

CoCoRaHS
IN-AL-39
A2 Web Hosting
Creative Commons License
GoDaddy
search engine by freefind advanced

loaded 2018-11-16 10:47:43 • last modified 2010-11-18 10:43:29
Privacy PolicyDisclaimer
• wx.awcolley.com is powered by PmWiki v.2002016 •
• all content (unless otherwise noted) © 2018 A W Colley